sensor_id;sensor_type;location;lat;lon;timestamp;temperature;humidity
27619;DHT22;15039;50.830;4.730;2023-07-22T00:01:51;15.80;99.90
27619;DHT22;15039;50.830;4.730;2023-07-22T00:04:16;15.80;99.90
27619;DHT22;15039;50.830;4.730;2023-07-22T00:06:42;15.90;99.90
27619;DHT22;15039;50.830;4.730;2023-07-22T00:09:07;15.90;99.90
27619;DHT22;15039;50.830;4.730;2023-07-22T00:11:35;15.90;99.90
27619;DHT22;15039;50.830;4.730;2023-07-22T00:14:01;15.80;99.90
27619;DHT22;15039;50.830;4.730;2023-07-22T00:16:26;15.70;99.90
27619;DHT22;15039;50.830;4.730;2023-07-22T00:18:52;15.70;99.90
27619;DHT22;15039;50.830;4.730;2023-07-22T00:21:18;15.70;99.90
27619;DHT22;15039;50.830;4.730;2023-07-22T00:23:44;15.70;99.90
27619;DHT22;15039;50.830;4.730;2023-07-22T00:26:11;15.70;99.90
27619;DHT22;15039;50.830;4.730;2023-07-22T00:28:36;15.70;99.90
27619;DHT22;15039;50.830;4.730;2023-07-22T00:31:02;15.80;99.90
27619;DHT22;15039;50.830;4.730;2023-07-22T00:33:28;15.80;99.90
27619;DHT22;15039;50.830;4.730;2023-07-22T00:35:54;15.80;99.90
27619;DHT22;15039;50.830;4.730;2023-07-22T00:38:20;15.80;99.90
27619;DHT22;15039;50.830;4.730;2023-07-22T00:40:46;15.70;99.90
27619;DHT22;15039;50.830;4.730;2023-07-22T00:43:11;15.60;99.90
27619;DHT22;15039;50.830;4.730;2023-07-22T00:45:37;15.60;99.90
27619;DHT22;15039;50.830;4.730;2023-07-22T00:48:02;15.50;99.90
27619;DHT22;15039;50.830;4.730;2023-07-22T00:50:30;15.50;99.90
27619;DHT22;15039;50.830;4.730;2023-07-22T00:52:56;15.60;99.90
27619;DHT22;15039;50.830;4.730;2023-07-22T00:55:21;15.50;99.90
27619;DHT22;15039;50.830;4.730;2023-07-22T00:57:47;15.50;99.90
27619;DHT22;15039;50.830;4.730;2023-07-22T01:00:13;15.40;99.90
27619;DHT22;15039;50.830;4.730;2023-07-22T01:02:40;15.30;99.90
27619;DHT22;15039;50.830;4.730;2023-07-22T01:05:06;15.30;99.90
27619;DHT22;15039;50.830;4.730;2023-07-22T01:07:32;15.30;99.90
27619;DHT22;15039;50.830;4.730;2023-07-22T01:09:58;15.20;99.90
27619;DHT22;15039;50.830;4.730;2023-07-22T01:12:23;15.20;99.90
27619;DHT22;15039;50.830;4.730;2023-07-22T01:14:49;15.20;99.90
27619;DHT22;15039;50.830;4.730;2023-07-22T01:17:15;15.20;99.90
27619;DHT22;15039;50.830;4.730;2023-07-22T01:19:40;15.20;99.90
27619;DHT22;15039;50.830;4.730;2023-07-22T01:22:06;15.20;99.90
27619;DHT22;15039;50.830;4.730;2023-07-22T01:24:36;15.20;99.90
27619;DHT22;15039;50.830;4.730;2023-07-22T01:27:02;15.20;99.90
27619;DHT22;15039;50.830;4.730;2023-07-22T01:29:28;15.20;99.90
27619;DHT22;15039;50.830;4.730;2023-07-22T01:31:54;15.20;99.90
27619;DHT22;15039;50.830;4.730;2023-07-22T01:34:22;15.30;99.90
27619;DHT22;15039;50.830;4.730;2023-07-22T01:36:48;15.20;99.90
27619;DHT22;15039;50.830;4.730;2023-07-22T01:39:14;15.10;99.90
27619;DHT22;15039;50.830;4.730;2023-07-22T01:41:40;15.00;99.90
27619;DHT22;15039;50.830;4.730;2023-07-22T01:44:06;15.10;99.90
27619;DHT22;15039;50.830;4.730;2023-07-22T01:46:31;15.10;99.90
27619;DHT22;15039;50.830;4.730;2023-07-22T01:48:57;15.10;99.90
27619;DHT22;15039;50.830;4.730;2023-07-22T01:51:22;15.10;99.90
27619;DHT22;15039;50.830;4.730;2023-07-22T01:53:51;15.10;99.90
27619;DHT22;15039;50.830;4.730;2023-07-22T01:56:17;15.00;99.90
27619;DHT22;15039;50.830;4.730;2023-07-22T01:58:42;15.00;99.90
27619;DHT22;15039;50.830;4.730;2023-07-22T02:01:08;15.00;99.90
27619;DHT22;15039;50.830;4.730;2023-07-22T02:03:34;15.10;99.90
27619;DHT22;15039;50.830;4.730;2023-07-22T02:06:03;15.00;99.90
27619;DHT22;15039;50.830;4.730;2023-07-22T02:08:29;15.00;99.90
27619;DHT22;15039;50.830;4.730;2023-07-22T02:10:54;14.90;99.90
27619;DHT22;15039;50.830;4.730;2023-07-22T02:13:20;14.80;99.90
27619;DHT22;15039;50.830;4.730;2023-07-22T02:15:45;14.80;99.90
27619;DHT22;15039;50.830;4.730;2023-07-22T02:18:11;14.70;99.90
27619;DHT22;15039;50.830;4.730;2023-07-22T02:20:36;14.70;99.90
27619;DHT22;15039;50.830;4.730;2023-07-22T02:23:02;14.70;99.90
27619;DHT22;15039;50.830;4.730;2023-07-22T02:25:27;14.60;99.90
27619;DHT22;15039;50.830;4.730;2023-07-22T02:27:53;14.50;99.90
27619;DHT22;15039;50.830;4.730;2023-07-22T02:30:19;14.50;99.90
27619;DHT22;15039;50.830;4.730;2023-07-22T02:32:44;14.50;99.90
27619;DHT22;15039;50.830;4.730;2023-07-22T02:35:10;14.50;99.90
27619;DHT22;15039;50.830;4.730;2023-07-22T02:37:37;14.40;99.90
27619;DHT22;15039;50.830;4.730;2023-07-22T02:40:02;14.40;99.90
27619;DHT22;15039;50.830;4.730;2023-07-22T02:42:33;14.40;99.90
27619;DHT22;15039;50.830;4.730;2023-07-22T02:44:59;14.30;99.90
27619;DHT22;15039;50.830;4.730;2023-07-22T02:47:25;14.20;99.90
27619;DHT22;15039;50.830;4.730;2023-07-22T02:49:50;14.30;99.90
27619;DHT22;15039;50.830;4.730;2023-07-22T02:52:16;14.20;99.90
27619;DHT22;15039;50.830;4.730;2023-07-22T02:54:41;14.20;99.90
27619;DHT22;15039;50.830;4.730;2023-07-22T02:57:07;14.30;99.90
27619;DHT22;15039;50.830;4.730;2023-07-22T02:59:32;14.30;99.90
27619;DHT22;15039;50.830;4.730;2023-07-22T03:01:58;14.20;99.90
27619;DHT22;15039;50.830;4.730;2023-07-22T03:04:24;14.10;99.90
27619;DHT22;15039;50.830;4.730;2023-07-22T03:06:49;14.10;99.90
27619;DHT22;15039;50.830;4.730;2023-07-22T03:09:15;14.10;99.90
27619;DHT22;15039;50.830;4.730;2023-07-22T03:11:40;14.00;99.90
27619;DHT22;15039;50.830;4.730;2023-07-22T03:14:06;14.00;99.90
27619;DHT22;15039;50.830;4.730;2023-07-22T03:16:31;14.00;99.90
27619;DHT22;15039;50.830;4.730;2023-07-22T03:18:57;14.10;99.90
27619;DHT22;15039;50.830;4.730;2023-07-22T03:21:22;14.10;99.90
27619;DHT22;15039;50.830;4.730;2023-07-22T03:23:48;13.90;99.90
27619;DHT22;15039;50.830;4.730;2023-07-22T03:26:14;13.90;99.90
27619;DHT22;15039;50.830;4.730;2023-07-22T03:28:40;13.80;99.90
27619;DHT22;15039;50.830;4.730;2023-07-22T03:31:07;13.70;99.90
27619;DHT22;15039;50.830;4.730;2023-07-22T03:33:33;13.70;99.90
27619;DHT22;15039;50.830;4.730;2023-07-22T03:36:00;13.70;99.90
27619;DHT22;15039;50.830;4.730;2023-07-22T03:38:25;13.70;99.90
27619;DHT22;15039;50.830;4.730;2023-07-22T03:40:51;13.70;99.90
27619;DHT22;15039;50.830;4.730;2023-07-22T03:43:20;13.70;99.90
27619;DHT22;15039;50.830;4.730;2023-07-22T03:45:45;13.70;99.90
27619;DHT22;15039;50.830;4.730;2023-07-22T03:48:11;13.80;99.90
27619;DHT22;15039;50.830;4.730;2023-07-22T03:50:36;13.70;99.90
27619;DHT22;15039;50.830;4.730;2023-07-22T03:53:02;13.60;99.90
27619;DHT22;15039;50.830;4.730;2023-07-22T03:55:27;13.60;99.90
27619;DHT22;15039;50.830;4.730;2023-07-22T03:57:53;13.60;99.90
27619;DHT22;15039;50.830;4.730;2023-07-22T04:00:20;13.50;99.90
27619;DHT22;15039;50.830;4.730;2023-07-22T04:02:46;13.60;99.90
27619;DHT22;15039;50.830;4.730;2023-07-22T04:05:12;13.70;99.90
27619;DHT22;15039;50.830;4.730;2023-07-22T04:07:37;13.70;99.90
27619;DHT22;15039;50.830;4.730;2023-07-22T04:10:03;13.70;99.90
27619;DHT22;15039;50.830;4.730;2023-07-22T04:12:29;13.70;99.90
27619;DHT22;15039;50.830;4.730;2023-07-22T04:14:54;13.60;99.90
27619;DHT22;15039;50.830;4.730;2023-07-22T04:17:20;13.70;99.90
27619;DHT22;15039;50.830;4.730;2023-07-22T04:19:45;13.70;99.90
27619;DHT22;15039;50.830;4.730;2023-07-22T04:22:11;13.70;99.90
27619;DHT22;15039;50.830;4.730;2023-07-22T04:24:37;13.70;99.90
27619;DHT22;15039;50.830;4.730;2023-07-22T04:27:03;13.70;99.90
27619;DHT22;15039;50.830;4.730;2023-07-22T04:29:28;13.80;99.90
27619;DHT22;15039;50.830;4.730;2023-07-22T04:32:00;13.80;99.90
27619;DHT22;15039;50.830;4.730;2023-07-22T04:34:29;13.90;99.90
27619;DHT22;15039;50.830;4.730;2023-07-22T04:36:55;14.00;99.90
27619;DHT22;15039;50.830;4.730;2023-07-22T04:39:21;14.10;99.90
27619;DHT22;15039;50.830;4.730;2023-07-22T04:41:46;14.10;99.90
27619;DHT22;15039;50.830;4.730;2023-07-22T04:44:12;14.30;99.90
27619;DHT22;15039;50.830;4.730;2023-07-22T04:46:39;14.50;99.90
27619;DHT22;15039;50.830;4.730;2023-07-22T04:49:06;14.50;99.90
27619;DHT22;15039;50.830;4.730;2023-07-22T04:51:31;14.70;99.90
27619;DHT22;15039;50.830;4.730;2023-07-22T04:53:57;14.80;99.90
27619;DHT22;15039;50.830;4.730;2023-07-22T04:56:22;14.90;99.90
27619;DHT22;15039;50.830;4.730;2023-07-22T04:58:48;14.90;99.90
27619;DHT22;15039;50.830;4.730;2023-07-22T05:01:15;14.90;99.90
27619;DHT22;15039;50.830;4.730;2023-07-22T05:03:40;14.90;99.90
27619;DHT22;15039;50.830;4.730;2023-07-22T05:06:06;15.00;99.90
27619;DHT22;15039;50.830;4.730;2023-07-22T05:08:31;15.00;99.90
27619;DHT22;15039;50.830;4.730;2023-07-22T05:10:56;15.20;99.90
27619;DHT22;15039;50.830;4.730;2023-07-22T05:13:22;15.20;99.90
27619;DHT22;15039;50.830;4.730;2023-07-22T05:15:48;15.20;99.90
27619;DHT22;15039;50.830;4.730;2023-07-22T05:18:14;15.20;99.90
27619;DHT22;15039;50.830;4.730;2023-07-22T05:20:39;15.20;99.90
27619;DHT22;15039;50.830;4.730;2023-07-22T05:23:05;15.20;99.90
27619;DHT22;15039;50.830;4.730;2023-07-22T05:25:30;15.10;99.90
27619;DHT22;15039;50.830;4.730;2023-07-22T05:27:56;15.20;99.90
27619;DHT22;15039;50.830;4.730;2023-07-22T05:30:21;15.10;99.90
27619;DHT22;15039;50.830;4.730;2023-07-22T05:32:47;15.20;99.90
27619;DHT22;15039;50.830;4.730;2023-07-22T05:35:12;15.30;99.90
27619;DHT22;15039;50.830;4.730;2023-07-22T05:37:38;15.30;99.90
27619;DHT22;15039;50.830;4.730;2023-07-22T05:40:03;15.40;99.90
27619;DHT22;15039;50.830;4.730;2023-07-22T05:42:29;15.40;99.90
27619;DHT22;15039;50.830;4.730;2023-07-22T05:44:57;15.40;99.90
27619;DHT22;15039;50.830;4.730;2023-07-22T05:47:24;15.40;99.90
27619;DHT22;15039;50.830;4.730;2023-07-22T05:49:50;15.60;99.90
27619;DHT22;15039;50.830;4.730;2023-07-22T05:52:15;15.70;99.90
27619;DHT22;15039;50.830;4.730;2023-07-22T05:54:41;15.80;99.90
27619;DHT22;15039;50.830;4.730;2023-07-22T05:57:08;15.90;99.90
27619;DHT22;15039;50.830;4.730;2023-07-22T05:59:34;16.10;99.90
27619;DHT22;15039;50.830;4.730;2023-07-22T06:02:01;16.20;99.90
27619;DHT22;15039;50.830;4.730;2023-07-22T06:04:28;16.30;99.90
27619;DHT22;15039;50.830;4.730;2023-07-22T06:06:55;16.40;99.90
27619;DHT22;15039;50.830;4.730;2023-07-22T06:09:20;16.40;99.90
27619;DHT22;15039;50.830;4.730;2023-07-22T06:11:46;16.40;99.90
27619;DHT22;15039;50.830;4.730;2023-07-22T06:14:12;16.50;99.90
27619;DHT22;15039;50.830;4.730;2023-07-22T06:16:37;16.60;99.90
27619;DHT22;15039;50.830;4.730;2023-07-22T06:19:03;16.80;99.90
27619;DHT22;15039;50.830;4.730;2023-07-22T06:21:29;16.90;99.90
27619;DHT22;15039;50.830;4.730;2023-07-22T06:23:54;17.00;99.90
27619;DHT22;15039;50.830;4.730;2023-07-22T06:26:20;17.00;99.90
27619;DHT22;15039;50.830;4.730;2023-07-22T06:28:45;17.10;99.90
27619;DHT22;15039;50.830;4.730;2023-07-22T06:31:11;17.20;99.90
27619;DHT22;15039;50.830;4.730;2023-07-22T06:33:36;17.30;99.90
27619;DHT22;15039;50.830;4.730;2023-07-22T06:36:02;17.30;99.90
27619;DHT22;15039;50.830;4.730;2023-07-22T06:38:30;17.30;99.90
27619;DHT22;15039;50.830;4.730;2023-07-22T06:40:56;17.40;99.90
27619;DHT22;15039;50.830;4.730;2023-07-22T06:43:22;17.50;99.90
27619;DHT22;15039;50.830;4.730;2023-07-22T06:45:48;17.50;99.90
27619;DHT22;15039;50.830;4.730;2023-07-22T06:48:13;17.60;99.90
27619;DHT22;15039;50.830;4.730;2023-07-22T06:50:39;17.70;99.90
27619;DHT22;15039;50.830;4.730;2023-07-22T06:53:04;17.80;99.90
27619;DHT22;15039;50.830;4.730;2023-07-22T06:55:31;17.60;99.90
27619;DHT22;15039;50.830;4.730;2023-07-22T06:57:56;17.70;99.90
27619;DHT22;15039;50.830;4.730;2023-07-22T07:00:22;17.70;99.90
27619;DHT22;15039;50.830;4.730;2023-07-22T07:02:48;17.80;99.90
27619;DHT22;15039;50.830;4.730;2023-07-22T07:05:14;17.90;99.90
27619;DHT22;15039;50.830;4.730;2023-07-22T07:07:41;18.00;99.90
27619;DHT22;15039;50.830;4.730;2023-07-22T07:10:07;18.10;99.90
27619;DHT22;15039;50.830;4.730;2023-07-22T07:12:32;18.10;99.90
27619;DHT22;15039;50.830;4.730;2023-07-22T07:14:58;18.10;99.90
27619;DHT22;15039;50.830;4.730;2023-07-22T07:17:23;18.10;99.90
27619;DHT22;15039;50.830;4.730;2023-07-22T07:19:49;18.10;99.90
27619;DHT22;15039;50.830;4.730;2023-07-22T07:22:14;18.10;99.90
27619;DHT22;15039;50.830;4.730;2023-07-22T07:24:40;18.00;99.90
27619;DHT22;15039;50.830;4.730;2023-07-22T07:27:05;18.10;99.90
27619;DHT22;15039;50.830;4.730;2023-07-22T07:29:31;18.10;99.90
27619;DHT22;15039;50.830;4.730;2023-07-22T07:31:56;18.10;99.90
27619;DHT22;15039;50.830;4.730;2023-07-22T07:34:22;18.20;99.90
27619;DHT22;15039;50.830;4.730;2023-07-22T07:36:48;18.30;99.90
27619;DHT22;15039;50.830;4.730;2023-07-22T07:39:14;18.40;99.90
27619;DHT22;15039;50.830;4.730;2023-07-22T07:41:39;18.50;99.90
27619;DHT22;15039;50.830;4.730;2023-07-22T07:44:05;18.50;99.90
27619;DHT22;15039;50.830;4.730;2023-07-22T07:46:31;18.50;99.90
27619;DHT22;15039;50.830;4.730;2023-07-22T07:48:57;18.60;99.90
27619;DHT22;15039;50.830;4.730;2023-07-22T07:51:24;18.50;99.90
27619;DHT22;15039;50.830;4.730;2023-07-22T07:53:52;18.70;99.90
27619;DHT22;15039;50.830;4.730;2023-07-22T07:56:18;19.00;99.90
27619;DHT22;15039;50.830;4.730;2023-07-22T07:58:44;19.30;99.90
27619;DHT22;15039;50.830;4.730;2023-07-22T08:01:10;19.40;99.90
27619;DHT22;15039;50.830;4.730;2023-07-22T08:03:36;19.60;99.90
27619;DHT22;15039;50.830;4.730;2023-07-22T08:06:02;19.70;99.90
27619;DHT22;15039;50.830;4.730;2023-07-22T08:08:27;19.60;99.90
27619;DHT22;15039;50.830;4.730;2023-07-22T08:11:03;19.50;99.90
27619;DHT22;15039;50.830;4.730;2023-07-22T08:13:29;19.60;99.90
27619;DHT22;15039;50.830;4.730;2023-07-22T08:15:56;19.70;99.90
27619;DHT22;15039;50.830;4.730;2023-07-22T08:18:22;19.50;99.90
27619;DHT22;15039;50.830;4.730;2023-07-22T08:20:47;19.40;99.90
27619;DHT22;15039;50.830;4.730;2023-07-22T08:23:13;19.50;99.90
27619;DHT22;15039;50.830;4.730;2023-07-22T08:25:39;19.70;99.90
27619;DHT22;15039;50.830;4.730;2023-07-22T08:28:04;19.70;99.90
27619;DHT22;15039;50.830;4.730;2023-07-22T08:30:30;19.70;99.90
27619;DHT22;15039;50.830;4.730;2023-07-22T08:32:56;19.80;99.90
27619;DHT22;15039;50.830;4.730;2023-07-22T08:35:21;19.80;99.90
27619;DHT22;15039;50.830;4.730;2023-07-22T08:37:47;19.80;99.90
27619;DHT22;15039;50.830;4.730;2023-07-22T08:40:13;20.00;99.90
27619;DHT22;15039;50.830;4.730;2023-07-22T08:42:40;20.10;99.90
27619;DHT22;15039;50.830;4.730;2023-07-22T08:45:06;20.40;99.90
27619;DHT22;15039;50.830;4.730;2023-07-22T08:47:34;20.50;99.90
27619;DHT22;15039;50.830;4.730;2023-07-22T08:50:01;20.70;99.90
27619;DHT22;15039;50.830;4.730;2023-07-22T08:52:27;20.70;99.90
27619;DHT22;15039;50.830;4.730;2023-07-22T08:54:53;20.80;99.90
27619;DHT22;15039;50.830;4.730;2023-07-22T08:57:19;21.00;99.90
27619;DHT22;15039;50.830;4.730;2023-07-22T08:59:45;21.00;99.90
27619;DHT22;15039;50.830;4.730;2023-07-22T09:02:12;20.90;99.90
27619;DHT22;15039;50.830;4.730;2023-07-22T09:04:38;20.90;99.90
27619;DHT22;15039;50.830;4.730;2023-07-22T09:07:04;20.50;99.90
27619;DHT22;15039;50.830;4.730;2023-07-22T09:09:31;20.40;99.90
27619;DHT22;15039;50.830;4.730;2023-07-22T09:11:57;20.40;99.90
27619;DHT22;15039;50.830;4.730;2023-07-22T09:14:23;20.30;99.90
27619;DHT22;15039;50.830;4.730;2023-07-22T09:16:49;20.50;99.90
27619;DHT22;15039;50.830;4.730;2023-07-22T09:19:15;20.70;99.90
27619;DHT22;15039;50.830;4.730;2023-07-22T09:21:44;20.90;99.90
27619;DHT22;15039;50.830;4.730;2023-07-22T09:24:20;20.90;99.90
27619;DHT22;15039;50.830;4.730;2023-07-22T09:26:46;21.10;99.90
27619;DHT22;15039;50.830;4.730;2023-07-22T09:29:11;21.20;99.90
27619;DHT22;15039;50.830;4.730;2023-07-22T09:31:48;21.50;99.90
27619;DHT22;15039;50.830;4.730;2023-07-22T09:34:13;21.60;99.90
27619;DHT22;15039;50.830;4.730;2023-07-22T09:36:55;21.60;99.90
27619;DHT22;15039;50.830;4.730;2023-07-22T09:39:21;21.60;99.90
27619;DHT22;15039;50.830;4.730;2023-07-22T09:41:47;21.40;99.90
27619;DHT22;15039;50.830;4.730;2023-07-22T09:44:12;21.50;99.90
27619;DHT22;15039;50.830;4.730;2023-07-22T09:46:38;21.50;99.90
27619;DHT22;15039;50.830;4.730;2023-07-22T09:49:05;21.50;99.90
27619;DHT22;15039;50.830;4.730;2023-07-22T09:51:38;21.40;99.90
27619;DHT22;15039;50.830;4.730;2023-07-22T09:54:07;21.60;99.90
27619;DHT22;15039;50.830;4.730;2023-07-22T09:56:42;21.60;99.90
27619;DHT22;15039;50.830;4.730;2023-07-22T09:59:08;21.60;99.90
27619;DHT22;15039;50.830;4.730;2023-07-22T10:01:35;21.70;99.90
27619;DHT22;15039;50.830;4.730;2023-07-22T10:04:00;21.70;99.90
27619;DHT22;15039;50.830;4.730;2023-07-22T10:06:28;21.70;99.90
27619;DHT22;15039;50.830;4.730;2023-07-22T10:09:04;21.60;99.90
27619;DHT22;15039;50.830;4.730;2023-07-22T10:11:34;21.50;99.90
27619;DHT22;15039;50.830;4.730;2023-07-22T10:14:07;21.50;99.90
27619;DHT22;15039;50.830;4.730;2023-07-22T10:16:32;21.40;99.90
27619;DHT22;15039;50.830;4.730;2023-07-22T10:19:00;21.30;99.90
27619;DHT22;15039;50.830;4.730;2023-07-22T10:21:45;21.40;99.90
27619;DHT22;15039;50.830;4.730;2023-07-22T10:24:41;21.60;99.90
27619;DHT22;15039;50.830;4.730;2023-07-22T10:27:07;21.80;99.90
27619;DHT22;15039;50.830;4.730;2023-07-22T10:29:33;22.00;99.90
27619;DHT22;15039;50.830;4.730;2023-07-22T10:31:59;22.10;99.90
27619;DHT22;15039;50.830;4.730;2023-07-22T10:34:26;22.30;99.90
27619;DHT22;15039;50.830;4.730;2023-07-22T10:36:55;22.50;99.90
27619;DHT22;15039;50.830;4.730;2023-07-22T10:39:24;22.40;99.90
27619;DHT22;15039;50.830;4.730;2023-07-22T10:41:59;22.40;99.90
27619;DHT22;15039;50.830;4.730;2023-07-22T10:44:25;22.30;99.90
27619;DHT22;15039;50.830;4.730;2023-07-22T10:46:57;22.40;99.90
27619;DHT22;15039;50.830;4.730;2023-07-22T10:49:23;22.50;99.90
27619;DHT22;15039;50.830;4.730;2023-07-22T10:51:49;22.30;99.90
27619;DHT22;15039;50.830;4.730;2023-07-22T10:54:30;22.10;99.90
27619;DHT22;15039;50.830;4.730;2023-07-22T10:56:57;22.00;99.90
27619;DHT22;15039;50.830;4.730;2023-07-22T10:59:27;22.00;99.90
27619;DHT22;15039;50.830;4.730;2023-07-22T11:01:53;22.10;99.90
27619;DHT22;15039;50.830;4.730;2023-07-22T11:04:26;22.20;99.90
27619;DHT22;15039;50.830;4.730;2023-07-22T11:07:04;22.50;99.90
27619;DHT22;15039;50.830;4.730;2023-07-22T11:14:25;22.70;99.90
27619;DHT22;15039;50.830;4.730;2023-07-22T11:16:51;22.80;99.90
27619;DHT22;15039;50.830;4.730;2023-07-22T11:19:17;22.80;99.90
27619;DHT22;15039;50.830;4.730;2023-07-22T11:21:44;22.80;99.90
27619;DHT22;15039;50.830;4.730;2023-07-22T11:24:09;22.60;99.90
27619;DHT22;15039;50.830;4.730;2023-07-22T11:26:35;22.80;99.90
27619;DHT22;15039;50.830;4.730;2023-07-22T11:29:01;23.00;99.90
27619;DHT22;15039;50.830;4.730;2023-07-22T11:31:33;23.20;99.90
27619;DHT22;15039;50.830;4.730;2023-07-22T11:34:20;23.40;99.90
27619;DHT22;15039;50.830;4.730;2023-07-22T11:36:46;23.70;99.90
27619;DHT22;15039;50.830;4.730;2023-07-22T11:39:27;23.70;99.90
27619;DHT22;15039;50.830;4.730;2023-07-22T11:41:59;23.70;99.90
27619;DHT22;15039;50.830;4.730;2023-07-22T11:44:44;23.70;99.90
27619;DHT22;15039;50.830;4.730;2023-07-22T11:47:10;23.70;99.90
27619;DHT22;15039;50.830;4.730;2023-07-22T11:49:37;23.60;99.90
27619;DHT22;15039;50.830;4.730;2023-07-22T11:52:10;23.50;99.90
27619;DHT22;15039;50.830;4.730;2023-07-22T11:54:38;23.40;99.90
27619;DHT22;15039;50.830;4.730;2023-07-22T11:59:39;23.50;99.90
27619;DHT22;15039;50.830;4.730;2023-07-22T12:02:05;23.60;99.90
27619;DHT22;15039;50.830;4.730;2023-07-22T12:04:33;23.40;99.90
27619;DHT22;15039;50.830;4.730;2023-07-22T12:07:01;23.50;99.90
27619;DHT22;15039;50.830;4.730;2023-07-22T12:09:29;23.60;99.90
27619;DHT22;15039;50.830;4.730;2023-07-22T12:11:55;23.80;99.90
27619;DHT22;15039;50.830;4.730;2023-07-22T12:14:21;24.10;99.90
27619;DHT22;15039;50.830;4.730;2023-07-22T12:16:47;24.20;99.90
27619;DHT22;15039;50.830;4.730;2023-07-22T12:19:12;24.20;99.90
27619;DHT22;15039;50.830;4.730;2023-07-22T12:21:38;24.20;99.90
27619;DHT22;15039;50.830;4.730;2023-07-22T12:24:03;24.30;99.90
27619;DHT22;15039;50.830;4.730;2023-07-22T12:26:33;24.40;99.90
27619;DHT22;15039;50.830;4.730;2023-07-22T12:28:58;24.40;99.90
27619;DHT22;15039;50.830;4.730;2023-07-22T12:31:25;24.10;99.90
27619;DHT22;15039;50.830;4.730;2023-07-22T12:33:50;24.00;99.90
27619;DHT22;15039;50.830;4.730;2023-07-22T12:36:16;24.10;99.90
27619;DHT22;15039;50.830;4.730;2023-07-22T12:38:41;24.20;99.10
27619;DHT22;15039;50.830;4.730;2023-07-22T12:41:08;24.20;99.50
27619;DHT22;15039;50.830;4.730;2023-07-22T12:43:34;24.20;99.60
27619;DHT22;15039;50.830;4.730;2023-07-22T12:45:59;24.20;99.60
27619;DHT22;15039;50.830;4.730;2023-07-22T12:48:25;24.30;99.70
27619;DHT22;15039;50.830;4.730;2023-07-22T12:50:52;24.00;98.90
27619;DHT22;15039;50.830;4.730;2023-07-22T12:53:17;23.90;99.80
27619;DHT22;15039;50.830;4.730;2023-07-22T12:55:43;23.90;99.90
27619;DHT22;15039;50.830;4.730;2023-07-22T12:58:10;24.10;99.90
27619;DHT22;15039;50.830;4.730;2023-07-22T13:00:36;24.20;99.40
27619;DHT22;15039;50.830;4.730;2023-07-22T13:03:02;24.10;99.00
27619;DHT22;15039;50.830;4.730;2023-07-22T13:05:27;23.80;98.80
27619;DHT22;15039;50.830;4.730;2023-07-22T13:07:53;23.70;99.50
27619;DHT22;15039;50.830;4.730;2023-07-22T13:10:18;23.90;99.30
27619;DHT22;15039;50.830;4.730;2023-07-22T13:12:45;24.10;98.70
27619;DHT22;15039;50.830;4.730;2023-07-22T13:15:11;24.10;99.10
27619;DHT22;15039;50.830;4.730;2023-07-22T13:17:36;24.10;98.50
27619;DHT22;15039;50.830;4.730;2023-07-22T13:20:03;24.10;98.50
27619;DHT22;15039;50.830;4.730;2023-07-22T13:22:32;24.30;98.20
27619;DHT22;15039;50.830;4.730;2023-07-22T13:24:58;24.30;98.40
27619;DHT22;15039;50.830;4.730;2023-07-22T13:27:23;24.60;98.50
27619;DHT22;15039;50.830;4.730;2023-07-22T13:29:49;24.80;98.00
27619;DHT22;15039;50.830;4.730;2023-07-22T13:32:14;24.60;97.50
27619;DHT22;15039;50.830;4.730;2023-07-22T13:34:40;24.60;97.60
27619;DHT22;15039;50.830;4.730;2023-07-22T13:37:05;24.50;97.80
27619;DHT22;15039;50.830;4.730;2023-07-22T13:39:31;24.50;98.00
27619;DHT22;15039;50.830;4.730;2023-07-22T13:41:57;24.70;98.30
27619;DHT22;15039;50.830;4.730;2023-07-22T13:44:22;24.80;97.50
27619;DHT22;15039;50.830;4.730;2023-07-22T13:46:48;24.90;96.90
27619;DHT22;15039;50.830;4.730;2023-07-22T13:49:13;24.80;96.80
27619;DHT22;15039;50.830;4.730;2023-07-22T13:51:40;24.70;96.80
27619;DHT22;15039;50.830;4.730;2023-07-22T13:54:06;24.60;97.60
27619;DHT22;15039;50.830;4.730;2023-07-22T13:56:32;24.70;97.80
27619;DHT22;15039;50.830;4.730;2023-07-22T13:58:58;25.00;97.00
27619;DHT22;15039;50.830;4.730;2023-07-22T14:01:26;25.10;96.40
27619;DHT22;15039;50.830;4.730;2023-07-22T14:03:53;24.90;96.80
27619;DHT22;15039;50.830;4.730;2023-07-22T14:06:18;25.10;97.30
27619;DHT22;15039;50.830;4.730;2023-07-22T14:08:44;25.00;97.00
27619;DHT22;15039;50.830;4.730;2023-07-22T14:11:11;24.90;97.00
27619;DHT22;15039;50.830;4.730;2023-07-22T14:13:36;24.90;96.60
27619;DHT22;15039;50.830;4.730;2023-07-22T14:16:02;24.70;97.00
27619;DHT22;15039;50.830;4.730;2023-07-22T14:18:28;24.80;97.40
27619;DHT22;15039;50.830;4.730;2023-07-22T14:20:54;24.60;96.70
27619;DHT22;15039;50.830;4.730;2023-07-22T14:23:19;24.50;97.20
27619;DHT22;15039;50.830;4.730;2023-07-22T14:25:45;24.30;97.60
27619;DHT22;15039;50.830;4.730;2023-07-22T14:28:10;24.00;97.20
27619;DHT22;15039;50.830;4.730;2023-07-22T14:30:36;23.80;97.60
27619;DHT22;15039;50.830;4.730;2023-07-22T14:33:01;23.60;97.80
27619;DHT22;15039;50.830;4.730;2023-07-22T14:35:27;23.50;98.20
27619;DHT22;15039;50.830;4.730;2023-07-22T14:37:52;23.40;98.20
27619;DHT22;15039;50.830;4.730;2023-07-22T14:40:18;23.10;98.80
27619;DHT22;15039;50.830;4.730;2023-07-22T14:42:44;23.00;98.50
27619;DHT22;15039;50.830;4.730;2023-07-22T14:45:09;22.90;98.70
27619;DHT22;15039;50.830;4.730;2023-07-22T14:47:35;22.90;98.60
27619;DHT22;15039;50.830;4.730;2023-07-22T14:50:00;22.80;98.70
27619;DHT22;15039;50.830;4.730;2023-07-22T14:52:26;22.70;98.70
27619;DHT22;15039;50.830;4.730;2023-07-22T14:54:51;22.70;99.10
27619;DHT22;15039;50.830;4.730;2023-07-22T14:57:18;22.80;99.30
27619;DHT22;15039;50.830;4.730;2023-07-22T14:59:44;23.10;99.10
27619;DHT22;15039;50.830;4.730;2023-07-22T15:02:10;23.40;99.00
27619;DHT22;15039;50.830;4.730;2023-07-22T15:04:35;23.80;98.70
27619;DHT22;15039;50.830;4.730;2023-07-22T15:07:01;24.00;98.20
27619;DHT22;15039;50.830;4.730;2023-07-22T15:09:27;24.20;98.50
27619;DHT22;15039;50.830;4.730;2023-07-22T15:11:54;24.40;98.00
27619;DHT22;15039;50.830;4.730;2023-07-22T15:14:20;24.50;97.60
27619;DHT22;15039;50.830;4.730;2023-07-22T15:16:47;24.60;97.60
27619;DHT22;15039;50.830;4.730;2023-07-22T15:19:14;24.60;97.40
27619;DHT22;15039;50.830;4.730;2023-07-22T15:21:39;24.40;97.50
27619;DHT22;15039;50.830;4.730;2023-07-22T15:24:05;24.40;97.60
27619;DHT22;15039;50.830;4.730;2023-07-22T15:26:31;24.30;97.70
27619;DHT22;15039;50.830;4.730;2023-07-22T15:28:56;24.40;98.20
27619;DHT22;15039;50.830;4.730;2023-07-22T15:31:22;24.40;98.30
27619;DHT22;15039;50.830;4.730;2023-07-22T15:33:48;24.40;98.60